Airfield :
LOGIN :

Register | Disclaimer

   EN    FR    IT 

 










Legend :    VFR   Marginal VFR   IFR   Intensive IFR   Very Intensive IFR
Visi :
Ceiling :
>= 8 km
>= 3000ft
5 to 8 km
1000 to 3000 ft
1500m to 5 km
500 to 1000 ft
800 to 1500m
200 to 500 ft
< 800m
< 200 ft
Symbols :   Thunderstorms  Fog  Heavy snow  Heavy precipitations  Wind > 20 kt
SIGMETs :     Misc.  Thunderstorms  Icing  Turbulence  Mountain Waves  Volcanic Ashes







- Airport Elevation : 1506 ft
- IATA code : BUJ


DAAD - Bou Saada

CURRENT METAR :
  • 190900Z 17001KT CAVOK 08/02 Q1022

EXPIRED METARs :
  • 190800Z 21002KT CAVOK 03/M02 Q1022
  • 190700Z 19002KT CAVOK 01/M00 Q1022
  • 190600Z 21003KT CAVOK 01/M01 Q1022

TAF TAF DAAD
Valid from the 19 at 09:00 until the 19 at 18:00 UTC


190800Z 1909/1918 19005KT 9999 FEW033 SCT233
No reported NOTAMs for that airfield.



MET'MAP, your aeronautical weather chart ! - Copyright ORBIFLY December 2007 - Disclaimer

ORBIFLY MET'MAP TEAM :

Programming & Development : Alexandra Zaïnal
Concept & Development : Baudouin d'Aumeries
Co-Development & Prog : Marc-Olivier Méhu
Technical & hardware support : Manuel Goepfert

Contact : metmap@orbifly.com




SOURCES & CREDITS :

   NOAA